Flight Track Log - Related Links

Times and Time Zones

All times are in EDT time to prevent confusion due to time zone crossing. See the AAL1459 flight status page for this flight to view local times or setup timezone preferences in your user account.

Time Position Orientation Groundspeed Altitude Reporting Facility
EDT Latitude Longitude Course Direction KTS MPH feet Rate Location/Type
Wed 09:01:36 PM 42.0167 -87.9833 270° West 193 222 2,400  Level Chicago TRACON
Wed 09:02:36 PM 42.0333 -88.0667 285° West 261 300 4,100 1,895 Climbing Chicago TRACON
Wed 09:03:00 PM 41.9667 -88.3757 270° West  Level FlightAware Approximate
Wed 09:03:30 PM 42.0231 -88.1428 260° West 263 303 6,000  Level Chicago Center
Wed 09:04:00 PM 41.9667 -88.5342 270° West  Level FlightAware Approximate
Wed 09:04:32 PM 42.0217 -88.2642 269° West 273 314 9,100  Level Chicago Center
Wed 09:05:00 PM 41.9667 -88.6928 270° West  Level FlightAware Approximate
Wed 09:05:34 PM 42.0208 -88.3725 269° West 288 331 10,900  Level Chicago Center
Wed 09:06:00 PM 41.9668 -88.8514 270° West  Level FlightAware Approximate
Wed 09:06:36 PM 42.0283 -88.5014 275° West 349 402 12,700  Level Chicago Center
Wed 09:07:38 PM 42.0461 -88.6306 281° West 356 410 15,400 2,688 Climbing Chicago Center
Wed 09:08:41 PM 42.0669 -88.7908 280° West 364 419 18,300 2,640 Climbing Chicago Center
Wed 09:09:43 PM 42.0744 -88.9311 274° West 367 422 20,900 2,371 Climbing Chicago Center
Wed 09:10:45 PM 42.0833 -89.0711 275° West 373 429 23,200 1,984 Climbing Chicago Center
Wed 09:11:47 PM 42.0914 -89.2119 274° West 376 433 25,000 1,500 Climbing Chicago Center
Wed 09:12:49 PM 42.1006 -89.3611 275° West 394 453 26,300 1,403 Climbing Chicago Center
Wed 09:13:51 PM 42.1147 -89.5142 277° West 408 470 27,900 1,887 Climbing Chicago Center
Wed 09:14:53 PM 42.1344 -89.6942 278° West 414 476 30,200 1,742 Climbing Chicago Center
Wed 09:15:55 PM 42.1508 -89.8425 279° West 405 466 31,500 1,210 Climbing Chicago Center
Wed 09:16:57 PM 42.1686 -89.9906 279° West 405 466 32,700 1,210 Climbing Chicago Center
Wed 09:17:59 PM 42.1819 -90.1403 277° West 404 465 34,000 1,113 Climbing Chicago Center
Wed 09:19:01 PM 42.1914 -90.2858 275° West 396 456 35,000 774 Climbing Chicago Center
Wed 09:20:03 PM 42.2022 -90.4333 276° West 397 457 35,600 484 Climbing Chicago Center
Wed 09:21:05 PM 42.2147 -90.6131 275° West 405 466 36,000 192 Climbing Chicago Center
Wed 09:22:08 PM 42.2244 -90.7686 275° West 414 476 36,000  Level Chicago Center
Wed 09:23:10 PM 42.2344 -90.9308 275° West 429 494 36,000  Level Chicago Center
Wed 09:24:12 PM 42.2453 -91.1003 275° West 449 517 36,000  Level Chicago Center
Wed 09:25:14 PM 42.2553 -91.2664 275° West 448 516 36,000  Level Chicago Center
Wed 09:26:17 PM 42.2678 -91.4689 275° West 451 519 36,000  Level Chicago Center
Wed 09:27:18 PM 42.2781 -91.6414 275° West 458 527 36,000  Level Chicago Center
Wed 09:28:20 PM 42.2875 -91.8142 274° West 461 531 36,000  Level Chicago Center
Wed 09:29:22 PM 42.2967 -91.9875 274° West 462 532 36,000  Level Chicago Center
Wed 09:30:24 PM 42.3064 -92.1606 274° West 463 533 36,000  Level Chicago Center
Wed 09:31:26 PM 42.3156 -92.3331 274° West 464 534 36,000  Level Chicago Center
Wed 09:32:28 PM 42.3264 -92.5417 274° West 465 535 36,000  Level Chicago Center
Wed 09:33:30 PM 42.3350 -92.7150 274° West 464 534 36,000  Level Chicago Center
Wed 09:34:29 PM 42.3436 -92.8856 274° West 459 528 36,000  Level Minneapolis Center
Wed 09:35:31 PM 42.3514 -93.0586 274° West 463 533 36,000  Level Minneapolis Center
Wed 09:36:33 PM 42.3597 -93.2314 274° West 466 536 36,000  Level Minneapolis Center
Wed 09:37:35 PM 42.3675 -93.4042 274° West 466 536 36,000  Level Minneapolis Center
Wed 09:38:37 PM 42.3753 -93.5778 274° West 467 537 36,000  Level Minneapolis Center
Wed 09:39:38 PM 42.3844 -93.7872 273° West 469 540 36,000  Level Minneapolis Center
Wed 09:40:40 PM 42.3881 -93.9606 272° West 468 539 36,000  Level Minneapolis Center
Wed 09:41:42 PM 42.3953 -94.1319 273° West 464 534 36,000  Level Minneapolis Center
Wed 09:42:43 PM 42.4014 -94.2806 273° West 459 528 36,000  Level Minneapolis Center
Wed 09:43:57 PM 42.4089 -94.4889 273° West 463 533 36,000  Level Minneapolis Center
Wed 09:44:59 PM 42.4142 -94.6953 272° West 459 528 36,000  Level Minneapolis Center
Wed 09:46:01 PM 42.4203 -94.8719 273° West 467 537 36,000  Level Minneapolis Center
Wed 09:47:03 PM 42.4264 -95.0842 272° West 471 542 36,000  Level Minneapolis Center
Wed 09:48:04 PM 42.4317 -95.2631 272° West 476 548 36,000  Level Minneapolis Center
Wed 09:49:06 PM 42.4364 -95.4442 272° West 480 552 36,000  Level Minneapolis Center
Wed 09:50:08 PM 42.4403 -95.6217 272° West 475 547 36,000  Level Minneapolis Center
Wed 09:51:09 PM 42.4439 -95.7975 272° West 470 541 36,000  Level Minneapolis Center
Wed 09:52:11 PM 42.4478 -95.9722 272° West 468 539 36,000  Level Minneapolis Center
Wed 09:53:12 PM 42.4517 -96.1497 272° West 471 542 36,000  Level Minneapolis Center
Wed 09:54:14 PM 42.4544 -96.3581 271° West 466 536 36,000  Level Minneapolis Center
Wed 09:55:15 PM 42.4578 -96.5322 272° West 465 535 36,000  Level Minneapolis Center
Wed 09:56:17 PM 42.4603 -96.7056 271° West 462 532 36,000  Level Minneapolis Center
Wed 09:57:19 PM 42.4628 -96.8814 271° West 466 536 36,000  Level Minneapolis Center
Wed 09:58:20 PM 42.4647 -97.0572 271° West 468 539 36,000  Level Minneapolis Center
Wed 09:59:22 PM 42.4658 -97.2333 271° West 469 540 36,000  Level Minneapolis Center
Wed 10:00:23 PM 42.4681 -97.4111 271° West 472 543 36,000  Level Minneapolis Center
Wed 10:01:25 PM 42.4692 -97.5878 271° West 472 543 36,000  Level Minneapolis Center
Wed 10:02:26 PM 42.4706 -97.8003 271° West 472 543 36,000  Level Minneapolis Center
Wed 10:03:28 PM 42.4706 -97.9744 277° West 470 541 36,000  Level Minneapolis Center
Wed 10:04:29 PM 42.4719 -98.1164 271° West 472 543 36,000  Level Minneapolis Center
Wed 10:05:31 PM 42.4711 -98.3267 270° West 468 539 36,000  Level Minneapolis Center
Wed 10:06:32 PM 42.4706 -98.5047 270° West 472 543 36,000  Level Minneapolis Center
Wed 10:07:34 PM 42.4703 -98.6833 270° West 475 547 36,000  Level Minneapolis Center
Wed 10:08:35 PM 42.4533 -98.8636 263° West 480 552 36,000  Level Minneapolis Center
Wed 10:09:37 PM 42.4317 -99.0803 262° West 485 558 36,000  Level Minneapolis Center
Wed 10:10:38 PM 42.4131 -99.2600 262° West 485 558 36,000  Level Minneapolis Center
Wed 10:11:37 PM 42.3939 -99.4367 262° West 478 550 36,000  Level Denver Center
Wed 10:12:39 PM 42.3753 -99.6139 262° West 477 549 36,000  Level Denver Center
Wed 10:13:41 PM 42.3575 -99.7783 262° West 476 548 36,000  Level Denver Center
Wed 10:14:43 PM 42.3361 -99.9764 262° West 478 550 36,000  Level Denver Center
Wed 10:15:46 PM 42.3175 -100.1419 261° West 477 549 36,000  Level Minneapolis Center
Wed 10:16:47 PM 42.2972 -100.3192 261° West 477 549 36,000  Level Minneapolis Center
Wed 10:17:48 PM 42.2767 -100.5081 262° West 474 545 36,000  Level Denver Center
Wed 10:18:50 PM 42.2606 -100.6456 261° West 470 541 36,000  Level Denver Center
Wed 10:19:52 PM 42.2375 -100.8383 261° West 468 539 36,000  Level Denver Center
Wed 10:20:54 PM 42.2117 -101.0581 261° West 467 537 36,000  Level Denver Center
Wed 10:21:56 PM 42.1928 -101.2258 261° West 472 543 36,000  Level Denver Center
Wed 10:22:58 PM 42.1669 -101.4225 260° West 478 550 36,000  Level Denver Center
Wed 10:24:00 PM 42.1464 -101.5911 261° West 478 550 36,000  Level Denver Center
Wed 10:25:02 PM 42.1217 -101.7867 260° West 477 549 36,000  Level Denver Center
Wed 10:26:03 PM 42.1006 -101.9539 260° West 476 548 36,000  Level Denver Center
Wed 10:27:05 PM 42.0786 -102.1192 260° West 472 543 36,000  Level Denver Center
Wed 10:28:07 PM 42.0528 -102.3133 260° West 471 542 36,000  Level Denver Center
Wed 10:29:09 PM 42.0308 -102.4794 260° West 469 540 36,000  Level Denver Center
Wed 10:30:10 PM 42.0061 -102.6697 260° West 468 539 36,000  Level Denver Center
Wed 10:31:12 PM 41.9839 -102.8339 260° West 467 537 36,000  Level Denver Center
Wed 10:32:14 PM 41.9608 -103.0250 261° West 465 535 36,000  Level Denver Center
Wed 10:33:16 PM 41.9544 -103.1889 267° West 460 529 36,000  Level Denver Center
Wed 10:34:17 PM 41.9464 -103.3539 266° West 461 531 36,000  Level Denver Center
Wed 10:35:19 PM 41.9361 -103.5472 266° West 464 534 36,000  Level Denver Center
Wed 10:36:21 PM 41.9267 -103.7136 266° West 467 537 36,000  Level Denver Center
Wed 10:37:22 PM 41.9164 -103.9078 266° West 467 537 36,000  Level Denver Center
Wed 10:38:24 PM 41.9061 -104.0772 265° West 473 544 36,000  Level Denver Center
Wed 10:39:26 PM 41.8944 -104.2744 266° West 475 547 36,000  Level Denver Center
Wed 10:41:29 PM 41.8750 -104.6089 266° West 469 540 36,000  Level Denver Center
Wed 10:42:30 PM 41.8664 -104.7489 265° West 469 540 36,000  Level Denver Center
Wed 10:43:32 PM 41.8519 -104.9706 265° West 466 536 36,000 484 Level Denver Center
Wed 10:44:34 PM 41.8392 -105.1617 265° West 461 531 37,000 871 Climbing Denver Center
Wed 10:45:36 PM 41.8281 -105.3253 265° West 460 529 37,800 488 Climbing Denver Center
Wed 10:46:37 PM 41.8169 -105.4858 265° West 454 522 38,000 98 Climbing Denver Center
Wed 10:47:39 PM 41.8036 -105.6761 265° West 458 527 38,000  Level Denver Center
Wed 10:48:41 PM 41.7911 -105.8375 264° West 457 526 38,000  Level Denver Center
Wed 10:49:42 PM 41.7781 -106.0256 265° West 454 522 38,000  Level Denver Center
Wed 10:50:44 PM 41.7650 -106.1842 264° West 450 518 38,000  Level Denver Center
Wed 10:51:46 PM 41.7500 -106.3442 263° West 453 521 38,000  Level Denver Center
Wed 10:52:47 PM 41.7031 -106.5311 251° West 458 527 38,000  Level Denver Center
Wed 10:54:01 PM 41.6594 -106.6856 249° West 463 533 38,000  Level Denver Center
Wed 10:55:15 PM 41.5986 -106.8892 248° West 463 533 38,000  Level Denver Center
Wed 10:56:17 PM 41.5431 -107.0672 247° West 465 535 38,000  Level Denver Center
Wed 10:57:18 PM 41.4886 -107.2458 248° West 466 536 38,000  Level Denver Center
Wed 10:58:20 PM 41.4433 -107.3972 248° West 461 531 38,000  Level Denver Center
Wed 10:59:22 PM 41.3931 -107.5761 250° West 460 529 38,000  Level Denver Center
Wed 11:00:23 PM 41.3475 -107.7269 248° West 458 527 38,000  Level Denver Center
Wed 11:01:25 PM 41.3103 -107.9053 255° West 448 516 38,000  Level Denver Center
Wed 11:02:26 PM 41.3036 -108.0597 267° West 440 506 38,000  Level Denver Center
Wed 11:03:28 PM 41.2931 -108.2147 265° West 439 505 38,000  Level Denver Center
Wed 11:04:30 PM 41.2803 -108.3989 265° West 446 513 38,000  Level Denver Center
Wed 11:05:31 PM 41.2708 -108.5297 265° West 446 513 38,000  Level Denver Center
Wed 11:06:33 PM 41.2564 -108.7406 265° West 448 516 38,000  Level Denver Center
Wed 11:07:35 PM 41.2442 -108.8997 264° West 450 518 38,000  Level Denver Center
Wed 11:08:33 PM 41.2314 -109.0594 264° West 449 517 38,000  Level Salt Lake Center
Wed 11:09:34 PM 41.2194 -109.2211 264° West 452 520 38,000  Level Salt Lake Center
Wed 11:10:36 PM 41.2058 -109.4067 264° West 449 517 38,000  Level Salt Lake Center
Wed 11:11:37 PM 41.1933 -109.5644 264° West 448 516 38,000  Level Salt Lake Center
Wed 11:12:39 PM 41.1825 -109.7222 265° West 448 516 38,000  Level Salt Lake Center
Wed 11:13:40 PM 41.1667 -109.9050 263° West 445 512 38,000  Level Salt Lake Center
Wed 11:14:42 PM 41.1542 -110.0653 264° West 453 521 38,000  Level Salt Lake Center
Wed 11:15:43 PM 41.1383 -110.2503 264° West 452 520 38,000  Level Salt Lake Center
Wed 11:16:45 PM 41.1256 -110.4106 264° West 456 525 38,000  Level Salt Lake Center
Wed 11:17:46 PM 41.1114 -110.5692 263° West 454 522 38,000  Level Salt Lake Center
Wed 11:18:48 PM 41.0961 -110.7514 264° West 455 524 38,000  Level Salt Lake Center
Wed 11:19:49 PM 41.0808 -110.9175 263° West 457 526 38,000  Level Salt Lake Center
Wed 11:20:50 PM 41.0658 -111.0853 263° West 458 527 38,000  Level Salt Lake Center
Wed 11:21:52 PM 41.0500 -111.2511 263° West 455 524 38,000  Level Salt Lake Center
Wed 11:22:53 PM 41.0353 -111.4161 263° West 453 521 38,000  Level Salt Lake Center
Wed 11:23:54 PM 41.0200 -111.5814 263° West 454 522 38,000  Level Salt Lake Center
Wed 11:24:55 PM 41.0017 -111.7806 263° West 451 519 38,000  Level Salt Lake Center
Wed 11:25:57 PM 40.9867 -111.9242 262° West 458 527 38,000  Level Salt Lake Center
Wed 11:26:58 PM 40.9697 -112.0906 262° West 454 522 38,000  Level Salt Lake Center
Wed 11:27:59 PM 40.9564 -112.2503 264° West 438 504 38,000  Level Salt Lake Center
Wed 11:29:01 PM 40.9650 -112.4447 273° West 439 505 38,000  Level Salt Lake Center
Wed 11:30:02 PM 40.9689 -112.6053 272° West 438 504 38,000  Level Salt Lake Center
Wed 11:31:03 PM 40.9714 -112.7656 271° West 437 503 38,000  Level Salt Lake Center
Wed 11:32:04 PM 40.9783 -112.9244 273° West 433 498 38,000  Level Salt Lake Center
Wed 11:33:05 PM 40.9931 -113.0808 277° West 428 493 38,000  Level Salt Lake Center
Wed 11:34:07 PM 41.0033 -113.2386 275° West 431 496 38,000  Level Salt Lake Center
Wed 11:35:08 PM 41.0147 -113.3944 276° West 428 493 38,000  Level Salt Lake Center
Wed 11:36:09 PM 41.0256 -113.5525 275° West 431 496 38,000  Level Salt Lake Center
Wed 11:37:10 PM 41.0361 -113.7106 275° West 431 496 38,000  Level Salt Lake Center
Wed 11:38:11 PM 41.0417 -113.8683 273° West 431 496 38,000  Level Salt Lake Center
Wed 11:39:13 PM 41.0419 -114.0594 270° West 433 498 38,000  Level Salt Lake Center
Wed 11:40:14 PM 41.0358 -114.2189 267° West 434 499 38,000  Level Salt Lake Center
Wed 11:41:15 PM 41.0233 -114.3789 264° West 437 503 38,000  Level Salt Lake Center
Wed 11:42:16 PM 41.0119 -114.5206 264° West 428 493 38,000  Level Salt Lake Center
Wed 11:43:18 PM 40.9806 -114.6881 256° West 421 484 38,000  Level Salt Lake Center
Wed 11:44:19 PM 40.9536 -114.8347 256° West 426 490 38,000  Level Salt Lake Center
Wed 11:45:20 PM 40.9183 -115.0075 255° West 434 499 38,000  Level Salt Lake Center
Wed 11:46:21 PM 40.8861 -115.1533 254° West 433 498 38,000  Level Salt Lake Center
Wed 11:47:22 PM 40.8564 -115.2989 255° West 430 495 38,000  Level Salt Lake Center
Wed 11:48:24 PM 40.8200 -115.4703 254° West 432 497 38,000  Level Salt Lake Center
Wed 11:49:25 PM 40.7892 -115.6156 254° West 433 498 38,000  Level Salt Lake Center
Wed 11:50:26 PM 40.7583 -115.7631 255° West 435 501 38,000  Level Salt Lake Center
Wed 11:51:27 PM 40.7236 -115.9342 255° West 432 497 38,000  Level Salt Lake Center
Wed 11:52:28 PM 40.6936 -116.0792 255° West 430 495 38,000  Level Salt Lake Center
Wed 11:53:29 PM 40.6556 -116.2494 254° West 433 498 38,000  Level Salt Lake Center
Wed 11:54:31 PM 40.6244 -116.3931 254° West 429 494 38,000  Level Salt Lake Center
Wed 11:55:32 PM 40.5939 -116.5369 254° West 428 493 38,000  Level Salt Lake Center
Wed 11:56:33 PM 40.5575 -116.7039 254° West 427 491 38,000  Level Salt Lake Center
Wed 11:57:34 PM 40.5258 -116.8472 254° West 433 498 38,000  Level Salt Lake Center
Wed 11:58:36 PM 40.4900 -117.0139 254° West 436 502 38,000  Level Salt Lake Center
Wed 11:59:36 PM 40.4567 -117.1550 253° West 430 495 38,000  Level Salt Lake Center
Thu 12:00:37 AM 40.4183 -117.3211 253° West 427 491 38,000  Level Salt Lake Center
Thu 12:01:39 AM 40.3856 -117.4664 254° West 435 501 38,000  Level Salt Lake Center
Thu 12:02:40 AM 40.3528 -117.6111 253° West 434 499 38,000  Level Salt Lake Center
Thu 12:03:22 AM 40.3256 -117.7294 253° West 428 493 38,000  Level Oakland Center
Thu 12:04:23 AM 40.2925 -117.8717 253° West 427 491 38,000  Level Oakland Center
Thu 12:05:24 AM 40.2575 -118.0175 253° West 435 501 38,000 -49 Level Oakland Center
Thu 12:06:25 AM 40.2256 -118.1700 255° West 435 501 37,900 -639 Descending Oakland Center
Thu 12:07:26 AM 40.1839 -118.3497 253° West 433 498 36,700 -1,623 Descending Oakland Center
Thu 12:08:27 AM 40.1467 -118.4933 251° West 423 487 34,600 -2,902 Descending Oakland Center
Thu 12:09:28 AM 40.0869 -118.6292 240° Southwest 439 505 30,800 -3,590 Descending Oakland Center
Thu 12:10:29 AM 39.9933 -118.7422 223° Southwest 456 525 27,300 -3,295 Descending Oakland Center
Thu 12:11:30 AM 39.9025 -118.8544 223° Southwest 454 522 24,100 -2,820 Descending Oakland Center
Thu 12:13:32 AM 39.7256 -119.0667 223° Southwest 429 494 18,700 -2,393 Descending Oakland Center
Thu 12:14:33 AM 39.6436 -119.1658 223° Southwest 411 473 16,800 -1,623 Descending Oakland Center
Thu 12:15:34 AM 39.5672 -119.2581 223° Southwest 384 442 15,400 -1,082 Descending Oakland Center
Thu 12:16:35 AM 39.4942 -119.3508 224° Southwest 375 432 14,600 -1,820 Descending Oakland Center
Thu 12:17:36 AM 39.4283 -119.4736 235° Southwest 350 403 11,700 -1,721 Descending Oakland Center
Thu 12:18:37 AM 39.3722 -119.5719 234° Southwest 348 400 11,100 -689 Descending Oakland Center
Thu 12:19:38 AM 39.3200 -119.6486 229° Southwest 309 356 10,300 -934 Descending Oakland Center
Thu 12:20:39 AM 39.2506 -119.6814 200° South 285 328 9,200 -721 Descending Oakland Center
Thu 12:22:41 AM 39.3119 -119.7719 311° West 230 265 8,100 -426 Descending Oakland Center
Thu 12:23:42 AM 39.3694 -119.7725 360° North 227 261 7,900 -1,050 Descending Oakland Center
Thu 12:24:41 AM 39.4167 -119.7667 North 156 180 6,000 -1,361 Descending Northern Cal TRACON
Thu 12:25:41 AM 39.4500 -119.7667 360° North 161 185 5,200 -800 Descending Northern Cal TRACON
Thu 12:27:00 AM 39.4833 -119.7667 322° Northwest  Level FlightAware Approximate
Thu 12:34:00 AM 39.4991 -119.7681 322° Northwest  Level Estimated

Login

Don't have an account? Register now (free) for customized features, flight alerts, and more!